sensor_id;sensor_type;location;lat;lon;timestamp;P1;durP1;ratioP1;P2;durP2;ratioP2
5054;SDS011;13829;48.990;8.346;2023-05-23T00:00:56;16.67;;;14.88;;
5054;SDS011;13829;48.990;8.346;2023-05-23T00:03:24;15.45;;;13.85;;
5054;SDS011;13829;48.990;8.346;2023-05-23T00:05:52;18.58;;;15.45;;
5054;SDS011;13829;48.990;8.346;2023-05-23T00:08:20;16.83;;;14.95;;
5054;SDS011;13829;48.990;8.346;2023-05-23T00:10:48;18.38;;;15.38;;
5054;SDS011;13829;48.990;8.346;2023-05-23T00:13:16;17.33;;;15.02;;
5054;SDS011;13829;48.990;8.346;2023-05-23T00:15:43;19.50;;;16.55;;
5054;SDS011;13829;48.990;8.346;2023-05-23T00:18:10;18.75;;;16.30;;
5054;SDS011;13829;48.990;8.346;2023-05-23T00:20:38;19.73;;;16.75;;
5054;SDS011;13829;48.990;8.346;2023-05-23T00:23:06;17.67;;;15.88;;
5054;SDS011;13829;48.990;8.346;2023-05-23T00:25:34;18.73;;;16.52;;
5054;SDS011;13829;48.990;8.346;2023-05-23T00:28:03;16.08;;;14.25;;
5054;SDS011;13829;48.990;8.346;2023-05-23T00:30:31;18.60;;;16.38;;
5054;SDS011;13829;48.990;8.346;2023-05-23T00:32:58;16.63;;;14.93;;
5054;SDS011;13829;48.990;8.346;2023-05-23T00:35:26;18.92;;;16.75;;
5054;SDS011;13829;48.990;8.346;2023-05-23T00:37:53;18.45;;;15.73;;
5054;SDS011;13829;48.990;8.346;2023-05-23T00:40:21;18.15;;;15.85;;
5054;SDS011;13829;48.990;8.346;2023-05-23T00:42:48;16.92;;;14.65;;
5054;SDS011;13829;48.990;8.346;2023-05-23T00:45:17;17.10;;;15.30;;
5054;SDS011;13829;48.990;8.346;2023-05-23T00:47:44;18.40;;;16.40;;
5054;SDS011;13829;48.990;8.346;2023-05-23T00:50:13;17.20;;;15.45;;
5054;SDS011;13829;48.990;8.346;2023-05-23T00:52:41;16.30;;;14.70;;
5054;SDS011;13829;48.990;8.346;2023-05-23T00:55:11;19.65;;;15.82;;
5054;SDS011;13829;48.990;8.346;2023-05-23T00:57:38;18.17;;;15.85;;
5054;SDS011;13829;48.990;8.346;2023-05-23T01:00:09;18.27;;;15.45;;
5054;SDS011;13829;48.990;8.346;2023-05-23T01:02:40;17.25;;;15.45;;
5054;SDS011;13829;48.990;8.346;2023-05-23T01:05:11;16.73;;;14.93;;
5054;SDS011;13829;48.990;8.346;2023-05-23T01:07:41;18.25;;;15.75;;
5054;SDS011;13829;48.990;8.346;2023-05-23T01:10:08;19.58;;;17.27;;
5054;SDS011;13829;48.990;8.346;2023-05-23T01:12:39;17.48;;;15.40;;
5054;SDS011;13829;48.990;8.346;2023-05-23T01:15:16;16.88;;;14.93;;
5054;SDS011;13829;48.990;8.346;2023-05-23T01:17:49;16.52;;;14.68;;
5054;SDS011;13829;48.990;8.346;2023-05-23T01:20:25;15.93;;;14.32;;
5054;SDS011;13829;48.990;8.346;2023-05-23T01:23:02;17.67;;;15.40;;
5054;SDS011;13829;48.990;8.346;2023-05-23T01:26:02;19.08;;;15.95;;
5054;SDS011;13829;48.990;8.346;2023-05-23T01:28:46;17.00;;;15.13;;
5054;SDS011;13829;48.990;8.346;2023-05-23T01:31:18;19.15;;;16.50;;
5054;SDS011;13829;48.990;8.346;2023-05-23T01:33:49;18.00;;;16.08;;
5054;SDS011;13829;48.990;8.346;2023-05-23T01:36:19;18.52;;;16.52;;
5054;SDS011;13829;48.990;8.346;2023-05-23T01:38:46;19.70;;;16.63;;
5054;SDS011;13829;48.990;8.346;2023-05-23T01:41:13;19.15;;;16.65;;
5054;SDS011;13829;48.990;8.346;2023-05-23T01:43:40;17.33;;;15.55;;
5054;SDS011;13829;48.990;8.346;2023-05-23T01:46:08;18.27;;;15.53;;
5054;SDS011;13829;48.990;8.346;2023-05-23T01:48:36;17.42;;;15.25;;
5054;SDS011;13829;48.990;8.346;2023-05-23T01:51:05;18.60;;;15.63;;
5054;SDS011;13829;48.990;8.346;2023-05-23T01:53:32;19.90;;;17.40;;
5054;SDS011;13829;48.990;8.346;2023-05-23T01:56:01;17.95;;;16.05;;
5054;SDS011;13829;48.990;8.346;2023-05-23T01:58:28;19.80;;;17.70;;
5054;SDS011;13829;48.990;8.346;2023-05-23T02:00:56;18.73;;;16.65;;
5054;SDS011;13829;48.990;8.346;2023-05-23T02:03:24;18.48;;;16.52;;
5054;SDS011;13829;48.990;8.346;2023-05-23T02:05:52;21.20;;;18.10;;
5054;SDS011;13829;48.990;8.346;2023-05-23T02:08:18;21.10;;;17.30;;
5054;SDS011;13829;48.990;8.346;2023-05-23T02:10:45;19.97;;;16.43;;
5054;SDS011;13829;48.990;8.346;2023-05-23T02:13:12;19.10;;;16.50;;
5054;SDS011;13829;48.990;8.346;2023-05-23T02:15:39;18.70;;;16.60;;
5054;SDS011;13829;48.990;8.346;2023-05-23T02:18:06;18.83;;;16.40;;
5054;SDS011;13829;48.990;8.346;2023-05-23T02:20:35;19.33;;;16.17;;
5054;SDS011;13829;48.990;8.346;2023-05-23T02:23:01;18.77;;;15.68;;
5054;SDS011;13829;48.990;8.346;2023-05-23T02:25:28;17.35;;;15.65;;
5054;SDS011;13829;48.990;8.346;2023-05-23T02:27:55;19.63;;;17.27;;
5054;SDS011;13829;48.990;8.346;2023-05-23T02:30:22;19.47;;;16.73;;
5054;SDS011;13829;48.990;8.346;2023-05-23T02:32:49;17.58;;;15.70;;
5054;SDS011;13829;48.990;8.346;2023-05-23T02:35:17;19.42;;;17.08;;
5054;SDS011;13829;48.990;8.346;2023-05-23T02:37:45;17.70;;;15.90;;
5054;SDS011;13829;48.990;8.346;2023-05-23T02:40:12;19.47;;;17.37;;
5054;SDS011;13829;48.990;8.346;2023-05-23T02:42:39;17.90;;;16.00;;
5054;SDS011;13829;48.990;8.346;2023-05-23T02:45:06;19.53;;;16.43;;
5054;SDS011;13829;48.990;8.346;2023-05-23T02:47:34;18.33;;;16.33;;
5054;SDS011;13829;48.990;8.346;2023-05-23T02:50:01;20.30;;;16.07;;
5054;SDS011;13829;48.990;8.346;2023-05-23T02:52:29;24.37;;;17.80;;
5054;SDS011;13829;48.990;8.346;2023-05-23T02:54:58;17.57;;;15.30;;
5054;SDS011;13829;48.990;8.346;2023-05-23T02:57:25;20.07;;;17.97;;
5054;SDS011;13829;48.990;8.346;2023-05-23T02:59:53;20.10;;;17.83;;
5054;SDS011;13829;48.990;8.346;2023-05-23T03:02:20;18.80;;;16.80;;
5054;SDS011;13829;48.990;8.346;2023-05-23T03:04:46;19.63;;;16.40;;
5054;SDS011;13829;48.990;8.346;2023-05-23T03:07:14;17.27;;;15.13;;
5054;SDS011;13829;48.990;8.346;2023-05-23T03:09:41;21.07;;;17.63;;
5054;SDS011;13829;48.990;8.346;2023-05-23T03:12:10;22.17;;;18.90;;
5054;SDS011;13829;48.990;8.346;2023-05-23T03:14:37;20.13;;;17.90;;
5054;SDS011;13829;48.990;8.346;2023-05-23T03:17:03;20.13;;;17.63;;
5054;SDS011;13829;48.990;8.346;2023-05-23T03:19:30;20.90;;;18.33;;
5054;SDS011;13829;48.990;8.346;2023-05-23T03:21:57;25.97;;;22.03;;
5054;SDS011;13829;48.990;8.346;2023-05-23T03:24:24;23.10;;;20.43;;
5054;SDS011;13829;48.990;8.346;2023-05-23T03:26:51;22.63;;;20.20;;
5054;SDS011;13829;48.990;8.346;2023-05-23T03:29:19;23.40;;;20.80;;
5054;SDS011;13829;48.990;8.346;2023-05-23T03:31:46;24.10;;;20.07;;
5054;SDS011;13829;48.990;8.346;2023-05-23T03:34:13;22.03;;;19.37;;
5054;SDS011;13829;48.990;8.346;2023-05-23T03:36:40;24.85;;;20.75;;
5054;SDS011;13829;48.990;8.346;2023-05-23T03:39:07;23.43;;;20.93;;
5054;SDS011;13829;48.990;8.346;2023-05-23T03:41:34;23.63;;;19.93;;
5054;SDS011;13829;48.990;8.346;2023-05-23T03:44:01;25.92;;;21.40;;
5054;SDS011;13829;48.990;8.346;2023-05-23T03:46:30;27.50;;;21.88;;
5054;SDS011;13829;48.990;8.346;2023-05-23T03:48:57;32.27;;;22.73;;
5054;SDS011;13829;48.990;8.346;2023-05-23T03:51:23;26.98;;;22.83;;
5054;SDS011;13829;48.990;8.346;2023-05-23T03:53:52;26.92;;;22.52;;
5054;SDS011;13829;48.990;8.346;2023-05-23T03:56:19;28.55;;;23.75;;
5054;SDS011;13829;48.990;8.346;2023-05-23T03:58:46;29.15;;;24.38;;
5054;SDS011;13829;48.990;8.346;2023-05-23T04:01:13;31.70;;;24.30;;
5054;SDS011;13829;48.990;8.346;2023-05-23T04:03:42;28.00;;;23.97;;
5054;SDS011;13829;48.990;8.346;2023-05-23T04:06:09;27.77;;;22.03;;
5054;SDS011;13829;48.990;8.346;2023-05-23T04:08:36;31.97;;;24.93;;
5054;SDS011;13829;48.990;8.346;2023-05-23T04:11:05;29.83;;;25.38;;
5054;SDS011;13829;48.990;8.346;2023-05-23T04:13:33;33.53;;;27.75;;
5054;SDS011;13829;48.990;8.346;2023-05-23T04:16:00;33.27;;;26.00;;
5054;SDS011;13829;48.990;8.346;2023-05-23T04:18:29;32.70;;;27.10;;
5054;SDS011;13829;48.990;8.346;2023-05-23T04:20:58;35.60;;;27.83;;
5054;SDS011;13829;48.990;8.346;2023-05-23T04:23:25;31.20;;;25.08;;
5054;SDS011;13829;48.990;8.346;2023-05-23T04:25:52;34.85;;;28.05;;
5054;SDS011;13829;48.990;8.346;2023-05-23T04:28:21;35.80;;;28.23;;
5054;SDS011;13829;48.990;8.346;2023-05-23T04:30:48;40.47;;;31.63;;
5054;SDS011;13829;48.990;8.346;2023-05-23T04:33:16;41.03;;;32.78;;
5054;SDS011;13829;48.990;8.346;2023-05-23T04:35:43;37.40;;;32.83;;
5054;SDS011;13829;48.990;8.346;2023-05-23T04:38:12;42.85;;;34.83;;
5054;SDS011;13829;48.990;8.346;2023-05-23T04:40:39;41.15;;;32.15;;
5054;SDS011;13829;48.990;8.346;2023-05-23T04:43:06;38.28;;;31.88;;
5054;SDS011;13829;48.990;8.346;2023-05-23T04:45:34;42.17;;;32.85;;
5054;SDS011;13829;48.990;8.346;2023-05-23T04:48:01;42.38;;;34.25;;
5054;SDS011;13829;48.990;8.346;2023-05-23T04:50:29;38.00;;;31.10;;
5054;SDS011;13829;48.990;8.346;2023-05-23T04:52:57;38.00;;;30.85;;
5054;SDS011;13829;48.990;8.346;2023-05-23T04:55:25;42.60;;;32.55;;
5054;SDS011;13829;48.990;8.346;2023-05-23T04:57:52;30.73;;;26.67;;
5054;SDS011;13829;48.990;8.346;2023-05-23T05:00:20;32.88;;;28.17;;
5054;SDS011;13829;48.990;8.346;2023-05-23T05:02:47;34.95;;;29.35;;
5054;SDS011;13829;48.990;8.346;2023-05-23T05:05:14;42.60;;;29.30;;
5054;SDS011;13829;48.990;8.346;2023-05-23T05:07:41;34.30;;;29.30;;
5054;SDS011;13829;48.990;8.346;2023-05-23T05:10:09;35.80;;;28.45;;
5054;SDS011;13829;48.990;8.346;2023-05-23T05:12:42;31.92;;;26.30;;
5054;SDS011;13829;48.990;8.346;2023-05-23T05:15:09;31.25;;;24.35;;
5054;SDS011;13829;48.990;8.346;2023-05-23T05:17:37;24.67;;;22.08;;
5054;SDS011;13829;48.990;8.346;2023-05-23T05:20:05;21.15;;;18.95;;
5054;SDS011;13829;48.990;8.346;2023-05-23T05:22:34;22.73;;;20.10;;
5054;SDS011;13829;48.990;8.346;2023-05-23T05:25:04;23.95;;;21.10;;
5054;SDS011;13829;48.990;8.346;2023-05-23T05:27:33;22.50;;;20.05;;
5054;SDS011;13829;48.990;8.346;2023-05-23T05:30:03;22.50;;;20.08;;
5054;SDS011;13829;48.990;8.346;2023-05-23T05:32:32;23.50;;;20.93;;
5054;SDS011;13829;48.990;8.346;2023-05-23T05:34:59;24.02;;;20.42;;
5054;SDS011;13829;48.990;8.346;2023-05-23T05:37:27;23.42;;;20.42;;
5054;SDS011;13829;48.990;8.346;2023-05-23T05:39:54;21.77;;;19.58;;
5054;SDS011;13829;48.990;8.346;2023-05-23T05:42:23;23.77;;;18.97;;
5054;SDS011;13829;48.990;8.346;2023-05-23T05:44:50;22.77;;;18.27;;
5054;SDS011;13829;48.990;8.346;2023-05-23T05:47:18;21.63;;;19.30;;
5054;SDS011;13829;48.990;8.346;2023-05-23T05:49:45;21.83;;;19.40;;
5054;SDS011;13829;48.990;8.346;2023-05-23T05:52:12;22.23;;;19.93;;
5054;SDS011;13829;48.990;8.346;2023-05-23T05:54:39;21.27;;;18.80;;
5054;SDS011;13829;48.990;8.346;2023-05-23T05:57:06;21.48;;;18.95;;
5054;SDS011;13829;48.990;8.346;2023-05-23T05:59:33;23.35;;;18.95;;
5054;SDS011;13829;48.990;8.346;2023-05-23T06:02:00;21.48;;;18.42;;
5054;SDS011;13829;48.990;8.346;2023-05-23T06:04:28;20.95;;;18.75;;
5054;SDS011;13829;48.990;8.346;2023-05-23T06:06:56;23.60;;;19.65;;
5054;SDS011;13829;48.990;8.346;2023-05-23T06:09:23;20.20;;;18.15;;
5054;SDS011;13829;48.990;8.346;2023-05-23T06:11:49;24.67;;;19.63;;
5054;SDS011;13829;48.990;8.346;2023-05-23T06:14:16;23.00;;;19.98;;
5054;SDS011;13829;48.990;8.346;2023-05-23T06:16:43;21.55;;;18.73;;
5054;SDS011;13829;48.990;8.346;2023-05-23T06:19:10;21.80;;;19.52;;
5054;SDS011;13829;48.990;8.346;2023-05-23T06:21:38;22.30;;;19.88;;
5054;SDS011;13829;48.990;8.346;2023-05-23T06:24:05;18.67;;;16.67;;
5054;SDS011;13829;48.990;8.346;2023-05-23T06:26:32;20.65;;;17.80;;
5054;SDS011;13829;48.990;8.346;2023-05-23T06:29:01;19.45;;;17.45;;
5054;SDS011;13829;48.990;8.346;2023-05-23T06:31:28;20.80;;;18.08;;
5054;SDS011;13829;48.990;8.346;2023-05-23T06:33:55;19.77;;;17.27;;
5054;SDS011;13829;48.990;8.346;2023-05-23T06:36:22;17.48;;;15.65;;
5054;SDS011;13829;48.990;8.346;2023-05-23T06:38:50;23.42;;;17.42;;
5054;SDS011;13829;48.990;8.346;2023-05-23T06:41:17;20.48;;;16.50;;
5054;SDS011;13829;48.990;8.346;2023-05-23T06:43:44;20.08;;;15.32;;
5054;SDS011;13829;48.990;8.346;2023-05-23T06:46:11;18.27;;;15.63;;
5054;SDS011;13829;48.990;8.346;2023-05-23T06:48:38;17.13;;;15.20;;
5054;SDS011;13829;48.990;8.346;2023-05-23T06:51:05;15.60;;;13.65;;
5054;SDS011;13829;48.990;8.346;2023-05-23T06:53:32;14.70;;;12.95;;
5054;SDS011;13829;48.990;8.346;2023-05-23T06:56:00;13.00;;;11.65;;
5054;SDS011;13829;48.990;8.346;2023-05-23T06:58:27;14.05;;;12.60;;
5054;SDS011;13829;48.990;8.346;2023-05-23T07:00:55;14.45;;;12.50;;
5054;SDS011;13829;48.990;8.346;2023-05-23T07:03:22;13.82;;;12.27;;
5054;SDS011;13829;48.990;8.346;2023-05-23T07:05:49;19.85;;;12.25;;
5054;SDS011;13829;48.990;8.346;2023-05-23T07:08:16;13.50;;;11.40;;
5054;SDS011;13829;48.990;8.346;2023-05-23T07:10:43;13.43;;;12.02;;
5054;SDS011;13829;48.990;8.346;2023-05-23T07:13:11;13.20;;;11.85;;
5054;SDS011;13829;48.990;8.346;2023-05-23T07:15:38;15.52;;;12.52;;
5054;SDS011;13829;48.990;8.346;2023-05-23T07:18:05;13.73;;;12.13;;
5054;SDS011;13829;48.990;8.346;2023-05-23T07:20:32;13.75;;;11.88;;
5054;SDS011;13829;48.990;8.346;2023-05-23T07:22:59;16.23;;;12.07;;
5054;SDS011;13829;48.990;8.346;2023-05-23T07:25:26;12.30;;;10.88;;
5054;SDS011;13829;48.990;8.346;2023-05-23T07:27:53;14.57;;;12.27;;
5054;SDS011;13829;48.990;8.346;2023-05-23T07:30:21;14.07;;;12.57;;
5054;SDS011;13829;48.990;8.346;2023-05-23T07:32:48;16.55;;;12.57;;
5054;SDS011;13829;48.990;8.346;2023-05-23T07:35:16;15.88;;;12.52;;
5054;SDS011;13829;48.990;8.346;2023-05-23T07:37:48;18.20;;;12.85;;
5054;SDS011;13829;48.990;8.346;2023-05-23T07:40:15;18.80;;;14.18;;
5054;SDS011;13829;48.990;8.346;2023-05-23T07:42:41;18.20;;;13.43;;
5054;SDS011;13829;48.990;8.346;2023-05-23T07:45:09;17.48;;;12.90;;
5054;SDS011;13829;48.990;8.346;2023-05-23T07:47:38;21.83;;;14.35;;
5054;SDS011;13829;48.990;8.346;2023-05-23T07:50:05;17.17;;;14.05;;
5054;SDS011;13829;48.990;8.346;2023-05-23T07:52:33;18.80;;;15.18;;
5054;SDS011;13829;48.990;8.346;2023-05-23T07:55:00;20.98;;;15.48;;
5054;SDS011;13829;48.990;8.346;2023-05-23T07:57:28;20.80;;;15.20;;
5054;SDS011;13829;48.990;8.346;2023-05-23T07:59:55;20.70;;;15.68;;
5054;SDS011;13829;48.990;8.346;2023-05-23T08:02:22;18.73;;;14.15;;
5054;SDS011;13829;48.990;8.346;2023-05-23T08:04:51;17.92;;;14.55;;
5054;SDS011;13829;48.990;8.346;2023-05-23T08:07:18;16.05;;;14.35;;
5054;SDS011;13829;48.990;8.346;2023-05-23T08:09:45;15.50;;;13.77;;
5054;SDS011;13829;48.990;8.346;2023-05-23T08:12:12;15.60;;;13.98;;
5054;SDS011;13829;48.990;8.346;2023-05-23T08:14:39;18.27;;;14.68;;
5054;SDS011;13829;48.990;8.346;2023-05-23T08:17:06;16.70;;;14.77;;
5054;SDS011;13829;48.990;8.346;2023-05-23T08:19:33;19.25;;;14.10;;
5054;SDS011;13829;48.990;8.346;2023-05-23T08:22:02;17.27;;;14.32;;
5054;SDS011;13829;48.990;8.346;2023-05-23T08:24:29;18.00;;;14.02;;
5054;SDS011;13829;48.990;8.346;2023-05-23T08:26:58;17.35;;;15.23;;
5054;SDS011;13829;48.990;8.346;2023-05-23T08:29:25;17.20;;;14.95;;
5054;SDS011;13829;48.990;8.346;2023-05-23T08:31:52;20.42;;;15.20;;
5054;SDS011;13829;48.990;8.346;2023-05-23T08:34:19;16.35;;;13.82;;
5054;SDS011;13829;48.990;8.346;2023-05-23T08:36:46;16.75;;;13.13;;
5054;SDS011;13829;48.990;8.346;2023-05-23T08:39:14;18.98;;;12.05;;
5054;SDS011;13829;48.990;8.346;2023-05-23T08:41:41;12.27;;;10.60;;
5054;SDS011;13829;48.990;8.346;2023-05-23T08:44:08;14.60;;;10.13;;
5054;SDS011;13829;48.990;8.346;2023-05-23T08:46:37;10.82;;;9.73;;
5054;SDS011;13829;48.990;8.346;2023-05-23T08:49:10;11.10;;;9.05;;
5054;SDS011;13829;48.990;8.346;2023-05-23T08:51:40;10.00;;;8.52;;
5054;SDS011;13829;48.990;8.346;2023-05-23T08:54:09;9.25;;;8.05;;
5054;SDS011;13829;48.990;8.346;2023-05-23T08:56:39;10.57;;;8.52;;
5054;SDS011;13829;48.990;8.346;2023-05-23T08:59:08;10.65;;;7.63;;
5054;SDS011;13829;48.990;8.346;2023-05-23T09:01:37;9.43;;;8.48;;
5054;SDS011;13829;48.990;8.346;2023-05-23T09:04:05;11.13;;;9.43;;
5054;SDS011;13829;48.990;8.346;2023-05-23T09:06:33;8.57;;;7.78;;
5054;SDS011;13829;48.990;8.346;2023-05-23T09:09:00;11.38;;;7.30;;
5054;SDS011;13829;48.990;8.346;2023-05-23T09:11:28;9.85;;;6.85;;
5054;SDS011;13829;48.990;8.346;2023-05-23T09:13:59;8.70;;;7.43;;
5054;SDS011;13829;48.990;8.346;2023-05-23T09:16:30;9.02;;;7.25;;
5054;SDS011;13829;48.990;8.346;2023-05-23T09:18:58;7.15;;;6.55;;
5054;SDS011;13829;48.990;8.346;2023-05-23T09:21:35;7.85;;;7.05;;
5054;SDS011;13829;48.990;8.346;2023-05-23T09:24:02;9.80;;;6.60;;
5054;SDS011;13829;48.990;8.346;2023-05-23T09:26:31;6.85;;;6.15;;
5054;SDS011;13829;48.990;8.346;2023-05-23T09:29:03;6.07;;;5.47;;
5054;SDS011;13829;48.990;8.346;2023-05-23T09:31:31;7.07;;;5.22;;
5054;SDS011;13829;48.990;8.346;2023-05-23T09:33:58;9.65;;;5.25;;
5054;SDS011;13829;48.990;8.346;2023-05-23T09:36:26;7.30;;;5.72;;
5054;SDS011;13829;48.990;8.346;2023-05-23T09:38:56;4.50;;;4.10;;
5054;SDS011;13829;48.990;8.346;2023-05-23T09:41:29;5.45;;;4.20;;
5054;SDS011;13829;48.990;8.346;2023-05-23T09:44:04;5.25;;;4.03;;
5054;SDS011;13829;48.990;8.346;2023-05-23T09:46:34;4.45;;;4.03;;
5054;SDS011;13829;48.990;8.346;2023-05-23T09:49:03;4.28;;;3.85;;
5054;SDS011;13829;48.990;8.346;2023-05-23T09:51:42;5.22;;;3.85;;
5054;SDS011;13829;48.990;8.346;2023-05-23T09:54:09;4.30;;;4.00;;
5054;SDS011;13829;48.990;8.346;2023-05-23T09:56:36;22.63;;;5.93;;
5054;SDS011;13829;48.990;8.346;2023-05-23T09:59:08;4.80;;;4.20;;
5054;SDS011;13829;48.990;8.346;2023-05-23T10:01:41;4.53;;;4.13;;
5054;SDS011;13829;48.990;8.346;2023-05-23T10:04:13;4.25;;;3.85;;
5054;SDS011;13829;48.990;8.346;2023-05-23T10:06:48;4.78;;;3.80;;
5054;SDS011;13829;48.990;8.346;2023-05-23T10:09:20;4.10;;;3.80;;
5054;SDS011;13829;48.990;8.346;2023-05-23T10:12:19;4.40;;;4.00;;
5054;SDS011;13829;48.990;8.346;2023-05-23T10:15:09;6.25;;;4.15;;
5054;SDS011;13829;48.990;8.346;2023-05-23T10:17:45;3.63;;;3.33;;
5054;SDS011;13829;48.990;8.346;2023-05-23T10:20:24;4.55;;;4.15;;
5054;SDS011;13829;48.990;8.346;2023-05-23T10:22:55;4.93;;;3.80;;
5054;SDS011;13829;48.990;8.346;2023-05-23T10:25:25;4.47;;;3.72;;
5054;SDS011;13829;48.990;8.346;2023-05-23T10:27:53;4.00;;;3.55;;
5054;SDS011;13829;48.990;8.346;2023-05-23T10:30:25;3.65;;;3.35;;
5054;SDS011;13829;48.990;8.346;2023-05-23T10:32:52;4.95;;;3.75;;
5054;SDS011;13829;48.990;8.346;2023-05-23T10:35:22;3.75;;;3.45;;
5054;SDS011;13829;48.990;8.346;2023-05-23T10:38:06;5.82;;;3.85;;
5054;SDS011;13829;48.990;8.346;2023-05-23T10:40:54;4.20;;;3.80;;
5054;SDS011;13829;48.990;8.346;2023-05-23T10:43:33;4.55;;;4.18;;
5054;SDS011;13829;48.990;8.346;2023-05-23T10:46:12;3.92;;;3.60;;
5054;SDS011;13829;48.990;8.346;2023-05-23T10:48:40;3.75;;;3.42;;
5054;SDS011;13829;48.990;8.346;2023-05-23T10:51:08;4.30;;;3.90;;
5054;SDS011;13829;48.990;8.346;2023-05-23T10:53:37;5.28;;;3.85;;
5054;SDS011;13829;48.990;8.346;2023-05-23T10:56:06;3.97;;;3.58;;
5054;SDS011;13829;48.990;8.346;2023-05-23T10:58:35;5.10;;;3.83;;
5054;SDS011;13829;48.990;8.346;2023-05-23T11:01:05;4.43;;;3.67;;
5054;SDS011;13829;48.990;8.346;2023-05-23T11:03:36;5.25;;;4.10;;
5054;SDS011;13829;48.990;8.346;2023-05-23T11:06:27;6.50;;;4.18;;
5054;SDS011;13829;48.990;8.346;2023-05-23T11:09:03;4.47;;;3.75;;
5054;SDS011;13829;48.990;8.346;2023-05-23T11:11:50;4.05;;;3.63;;
5054;SDS011;13829;48.990;8.346;2023-05-23T11:14:19;3.80;;;3.40;;
5054;SDS011;13829;48.990;8.346;2023-05-23T11:16:57;4.13;;;3.38;;
5054;SDS011;13829;48.990;8.346;2023-05-23T11:19:27;3.80;;;3.50;;
5054;SDS011;13829;48.990;8.346;2023-05-23T11:21:56;3.58;;;3.28;;
5054;SDS011;13829;48.990;8.346;2023-05-23T11:27:24;4.47;;;4.07;;
5054;SDS011;13829;48.990;8.346;2023-05-23T11:29:57;3.38;;;3.08;;
5054;SDS011;13829;48.990;8.346;2023-05-23T11:32:26;4.35;;;3.50;;
5054;SDS011;13829;48.990;8.346;2023-05-23T11:34:57;3.58;;;3.28;;
5054;SDS011;13829;48.990;8.346;2023-05-23T11:37:25;4.38;;;3.55;;
5054;SDS011;13829;48.990;8.346;2023-05-23T11:39:53;4.30;;;3.70;;
5054;SDS011;13829;48.990;8.346;2023-05-23T11:42:21;6.22;;;3.55;;
5054;SDS011;13829;48.990;8.346;2023-05-23T11:44:48;3.45;;;3.15;;
5054;SDS011;13829;48.990;8.346;2023-05-23T11:47:16;5.38;;;3.10;;
5054;SDS011;13829;48.990;8.346;2023-05-23T11:49:44;4.20;;;3.80;;
5054;SDS011;13829;48.990;8.346;2023-05-23T11:52:13;3.35;;;2.95;;
5054;SDS011;13829;48.990;8.346;2023-05-23T11:54:41;3.70;;;3.10;;
5054;SDS011;13829;48.990;8.346;2023-05-23T11:57:08;4.10;;;3.05;;
5054;SDS011;13829;48.990;8.346;2023-05-23T11:59:37;4.07;;;3.13;;
5054;SDS011;13829;48.990;8.346;2023-05-23T12:02:05;4.30;;;3.50;;
5054;SDS011;13829;48.990;8.346;2023-05-23T12:04:33;4.13;;;2.90;;
5054;SDS011;13829;48.990;8.346;2023-05-23T12:07:03;6.25;;;3.03;;
5054;SDS011;13829;48.990;8.346;2023-05-23T12:09:33;5.13;;;3.60;;
5054;SDS011;13829;48.990;8.346;2023-05-23T12:12:07;3.20;;;2.90;;
5054;SDS011;13829;48.990;8.346;2023-05-23T12:14:35;4.70;;;3.10;;
5054;SDS011;13829;48.990;8.346;2023-05-23T12:17:08;4.13;;;3.38;;
5054;SDS011;13829;48.990;8.346;2023-05-23T12:19:36;3.67;;;3.38;;
5054;SDS011;13829;48.990;8.346;2023-05-23T12:22:04;4.30;;;3.40;;
5054;SDS011;13829;48.990;8.346;2023-05-23T12:24:34;4.00;;;3.55;;
5054;SDS011;13829;48.990;8.346;2023-05-23T12:27:01;4.10;;;3.67;;
5054;SDS011;13829;48.990;8.346;2023-05-23T12:29:29;4.25;;;3.80;;
5054;SDS011;13829;48.990;8.346;2023-05-23T12:31:59;5.40;;;4.00;;
5054;SDS011;13829;48.990;8.346;2023-05-23T12:34:28;5.03;;;3.97;;
5054;SDS011;13829;48.990;8.346;2023-05-23T12:36:55;4.25;;;3.70;;
5054;SDS011;13829;48.990;8.346;2023-05-23T12:39:24;4.50;;;4.10;;
5054;SDS011;13829;48.990;8.346;2023-05-23T12:41:54;4.18;;;3.75;;
5054;SDS011;13829;48.990;8.346;2023-05-23T12:44:31;5.93;;;4.22;;
5054;SDS011;13829;48.990;8.346;2023-05-23T12:46:58;7.57;;;3.95;;
5054;SDS011;13829;48.990;8.346;2023-05-23T12:49:25;5.65;;;3.38;;
5054;SDS011;13829;48.990;8.346;2023-05-23T12:51:52;5.20;;;3.83;;
5054;SDS011;13829;48.990;8.346;2023-05-23T12:54:19;4.50;;;3.90;;
5054;SDS011;13829;48.990;8.346;2023-05-23T12:56:46;3.78;;;3.42;;
5054;SDS011;13829;48.990;8.346;2023-05-23T12:59:14;4.18;;;3.78;;
5054;SDS011;13829;48.990;8.346;2023-05-23T13:01:41;3.75;;;3.45;;
5054;SDS011;13829;48.990;8.346;2023-05-23T13:04:08;3.85;;;3.55;;
5054;SDS011;13829;48.990;8.346;2023-05-23T13:06:35;6.47;;;4.05;;
5054;SDS011;13829;48.990;8.346;2023-05-23T13:09:02;4.00;;;3.70;;
5054;SDS011;13829;48.990;8.346;2023-05-23T13:11:29;3.75;;;3.42;;
5054;SDS011;13829;48.990;8.346;2023-05-23T13:13:56;4.15;;;3.75;;
5054;SDS011;13829;48.990;8.346;2023-05-23T13:16:24;4.70;;;4.13;;
5054;SDS011;13829;48.990;8.346;2023-05-23T13:18:51;4.45;;;3.38;;
5054;SDS011;13829;48.990;8.346;2023-05-23T13:21:18;5.93;;;4.10;;
5054;SDS011;13829;48.990;8.346;2023-05-23T13:23:45;4.32;;;3.92;;
5054;SDS011;13829;48.990;8.346;2023-05-23T13:26:12;4.55;;;3.85;;
5054;SDS011;13829;48.990;8.346;2023-05-23T13:28:39;4.72;;;4.32;;
5054;SDS011;13829;48.990;8.346;2023-05-23T13:31:06;4.13;;;3.83;;
5054;SDS011;13829;48.990;8.346;2023-05-23T13:33:34;5.65;;;4.22;;
5054;SDS011;13829;48.990;8.346;2023-05-23T13:36:02;4.40;;;4.00;;
5054;SDS011;13829;48.990;8.346;2023-05-23T13:38:29;4.45;;;3.78;;
5054;SDS011;13829;48.990;8.346;2023-05-23T13:40:56;4.97;;;4.47;;
5054;SDS011;13829;48.990;8.346;2023-05-23T13:43:23;4.65;;;4.20;;
5054;SDS011;13829;48.990;8.346;2023-05-23T13:45:50;4.60;;;4.20;;
5054;SDS011;13829;48.990;8.346;2023-05-23T13:48:17;5.82;;;4.40;;
5054;SDS011;13829;48.990;8.346;2023-05-23T13:50:45;5.57;;;4.10;;
5054;SDS011;13829;48.990;8.346;2023-05-23T13:53:12;4.25;;;3.92;;
5054;SDS011;13829;48.990;8.346;2023-05-23T13:55:40;5.28;;;4.22;;
5054;SDS011;13829;48.990;8.346;2023-05-23T13:58:09;4.45;;;4.05;;
5054;SDS011;13829;48.990;8.346;2023-05-23T14:00:36;4.70;;;4.25;;
5054;SDS011;13829;48.990;8.346;2023-05-23T14:03:03;4.47;;;4.07;;
5054;SDS011;13829;48.990;8.346;2023-05-23T14:05:32;5.00;;;4.50;;
5054;SDS011;13829;48.990;8.346;2023-05-23T14:08:01;5.43;;;4.05;;
5054;SDS011;13829;48.990;8.346;2023-05-23T14:10:28;6.03;;;5.35;;
5054;SDS011;13829;48.990;8.346;2023-05-23T14:12:57;6.20;;;5.65;;
5054;SDS011;13829;48.990;8.346;2023-05-23T14:15:25;7.28;;;5.45;;
5054;SDS011;13829;48.990;8.346;2023-05-23T14:17:52;6.70;;;5.82;;
5054;SDS011;13829;48.990;8.346;2023-05-23T14:20:20;5.97;;;5.47;;
5054;SDS011;13829;48.990;8.346;2023-05-23T14:22:47;6.55;;;5.85;;
5054;SDS011;13829;48.990;8.346;2023-05-23T14:25:15;6.47;;;5.88;;
5054;SDS011;13829;48.990;8.346;2023-05-23T14:27:42;6.28;;;5.55;;
5054;SDS011;13829;48.990;8.346;2023-05-23T14:30:10;6.15;;;5.55;;
5054;SDS011;13829;48.990;8.346;2023-05-23T14:32:37;6.65;;;5.95;;
5054;SDS011;13829;48.990;8.346;2023-05-23T14:35:05;6.30;;;5.70;;
5054;SDS011;13829;48.990;8.346;2023-05-23T14:37:35;6.18;;;5.60;;
5054;SDS011;13829;48.990;8.346;2023-05-23T14:40:03;7.43;;;6.13;;
5054;SDS011;13829;48.990;8.346;2023-05-23T14:42:32;8.85;;;6.28;;
5054;SDS011;13829;48.990;8.346;2023-05-23T14:44:59;7.30;;;5.43;;
5054;SDS011;13829;48.990;8.346;2023-05-23T14:47:26;10.02;;;6.65;;
5054;SDS011;13829;48.990;8.346;2023-05-23T14:49:53;6.75;;;6.10;;
5054;SDS011;13829;48.990;8.346;2023-05-23T14:52:20;7.22;;;6.53;;
5054;SDS011;13829;48.990;8.346;2023-05-23T14:54:47;6.28;;;5.45;;
5054;SDS011;13829;48.990;8.346;2023-05-23T14:57:14;7.45;;;6.57;;